createdAt,value
2018-11-10T00:01:33.946Z,57.10
2018-11-10T00:04:02.439Z,57.83
2018-11-10T00:06:30.930Z,54.73
2018-11-10T00:08:59.391Z,55.93
2018-11-10T00:11:28.071Z,54.93
2018-11-10T00:13:56.807Z,52.87
2018-11-10T00:16:25.524Z,50.77
2018-11-10T00:18:54.279Z,57.00
2018-11-10T00:21:22.979Z,58.97
2018-11-10T00:23:51.690Z,49.67
2018-11-10T00:26:20.455Z,53.83
2018-11-10T00:28:48.962Z,56.97
2018-11-10T00:31:17.471Z,59.23
2018-11-10T00:33:45.977Z,55.73
2018-11-10T00:36:14.485Z,57.80
2018-11-10T00:38:42.974Z,58.00
2018-11-10T00:41:11.484Z,59.53
2018-11-10T00:43:39.945Z,61.87
2018-11-10T00:46:08.461Z,56.77
2018-11-10T00:48:36.999Z,56.93
2018-11-10T00:51:05.594Z,52.67
2018-11-10T00:53:34.062Z,58.77
2018-11-10T00:56:02.606Z,57.43
2018-11-10T00:58:31.258Z,57.13
2018-11-10T01:01:00.068Z,58.37
2018-11-10T01:03:28.611Z,54.30
2018-11-10T01:05:57.118Z,58.63
2018-11-10T01:08:25.595Z,50.97
2018-11-10T01:10:54.136Z,61.43
2018-11-10T01:13:22.697Z,57.37
2018-11-10T01:15:51.433Z,52.43
2018-11-10T01:18:20.169Z,53.83
2018-11-10T01:20:48.807Z,54.33
2018-11-10T01:23:17.446Z,57.27
2018-11-10T01:25:46.161Z,61.57
2018-11-10T01:28:14.761Z,55.27
2018-11-10T01:30:43.300Z,57.10
2018-11-10T01:33:11.909Z,60.30
2018-11-10T01:35:40.534Z,58.60
2018-11-10T01:38:09.296Z,59.97
2018-11-10T01:40:37.965Z,64.10
2018-11-10T01:43:06.490Z,58.13
2018-11-10T01:45:34.995Z,68.20
2018-11-10T01:48:03.527Z,56.67
2018-11-10T01:50:31.999Z,64.37
2018-11-10T01:53:00.710Z,57.77
2018-11-10T01:55:29.203Z,56.83
2018-11-10T01:57:57.683Z,58.87
2018-11-10T02:00:26.186Z,60.87
2018-11-10T02:02:54.679Z,60.00
2018-11-10T02:05:23.179Z,56.50
2018-11-10T02:07:51.673Z,61.07
2018-11-10T02:10:20.165Z,64.03
2018-11-10T02:12:48.718Z,57.67
2018-11-10T02:15:17.626Z,62.10
2018-11-10T02:17:46.100Z,55.87
2018-11-10T02:20:15.233Z,63.10
2018-11-10T02:22:44.148Z,66.37
2018-11-10T02:25:13.089Z,50.20
2018-11-10T02:27:41.863Z,58.57
2018-11-10T02:30:11.169Z,59.63
2018-11-10T02:32:39.816Z,63.47
2018-11-10T02:35:09.438Z,54.97
2018-11-10T02:37:38.922Z,60.63
2018-11-10T02:40:09.366Z,56.30
2018-11-10T02:42:38.012Z,60.53
2018-11-10T02:45:07.937Z,56.73
2018-11-10T02:47:36.430Z,60.27
2018-11-10T02:50:05.063Z,59.70
2018-11-10T02:52:33.873Z,54.77
2018-11-10T02:55:02.434Z,57.07
2018-11-10T02:57:31.030Z,54.77
2018-11-10T02:59:59.549Z,57.30
2018-11-10T03:02:28.097Z,57.53
2018-11-10T03:04:56.712Z,60.47
2018-11-10T03:07:25.178Z,60.37
2018-11-10T03:09:53.722Z,61.17
2018-11-10T03:12:22.311Z,61.60
2018-11-10T03:14:50.874Z,60.33
2018-11-10T03:17:19.531Z,52.40
2018-11-10T03:19:48.192Z,52.30
2018-11-10T03:22:16.804Z,54.57
2018-11-10T03:24:45.424Z,47.67
2018-11-10T03:27:14.099Z,54.67
2018-11-10T03:29:42.713Z,46.43
2018-11-10T03:32:11.176Z,46.97
2018-11-10T03:34:39.759Z,54.20
2018-11-10T03:37:08.236Z,49.17
2018-11-10T03:39:36.921Z,47.73
2018-11-10T03:42:05.978Z,51.27
2018-11-10T03:44:34.623Z,47.83
2018-11-10T03:47:03.309Z,46.97
2018-11-10T03:49:31.914Z,47.30
2018-11-10T03:52:00.559Z,49.33
2018-11-10T03:54:29.169Z,49.00
2018-11-10T03:56:57.677Z,48.60
2018-11-10T03:59:26.104Z,48.77
2018-11-10T04:01:54.602Z,51.13
2018-11-10T04:04:23.153Z,56.03
2018-11-10T04:06:51.610Z,49.63
2018-11-10T04:09:20.238Z,44.93
2018-11-10T04:11:48.915Z,51.03
2018-11-10T04:14:17.488Z,53.77
2018-11-10T04:16:46.081Z,50.07
2018-11-10T04:19:14.742Z,48.43
2018-11-10T04:21:43.367Z,54.73
2018-11-10T04:24:11.998Z,60.50
2018-11-10T04:26:40.597Z,50.93
2018-11-10T04:29:09.156Z,49.50
2018-11-10T04:31:37.795Z,52.43
2018-11-10T04:34:06.659Z,49.33
2018-11-10T04:36:35.241Z,55.63
2018-11-10T04:39:04.695Z,50.67
2018-11-10T04:41:33.212Z,51.90
2018-11-10T04:44:01.643Z,55.50
2018-11-10T04:46:30.230Z,53.57
2018-11-10T04:48:58.713Z,51.43
2018-11-10T04:51:27.226Z,54.77
2018-11-10T04:53:55.661Z,49.30
2018-11-10T04:56:24.206Z,55.43
2018-11-10T04:58:52.707Z,54.63
2018-11-10T05:01:21.497Z,52.77
2018-11-10T05:03:50.183Z,50.47
2018-11-10T05:06:18.856Z,54.20
2018-11-10T05:08:47.512Z,52.57
2018-11-10T05:11:16.203Z,52.43
2018-11-10T05:13:44.822Z,56.97
2018-11-10T05:16:13.480Z,54.53
2018-11-10T05:18:42.031Z,55.40
2018-11-10T05:21:10.739Z,55.53
2018-11-10T05:23:39.398Z,55.27
2018-11-10T05:26:08.131Z,57.40
2018-11-10T05:28:36.777Z,57.97
2018-11-10T05:31:05.614Z,55.43
2018-11-10T05:33:34.190Z,58.40
2018-11-10T05:36:02.746Z,57.23
2018-11-10T05:38:31.406Z,57.40
2018-11-10T05:41:00.066Z,56.30
2018-11-10T05:43:28.765Z,55.60
2018-11-10T05:45:57.501Z,56.10
2018-11-10T05:48:26.194Z,62.10
2018-11-10T05:50:54.898Z,57.13
2018-11-10T05:53:23.518Z,62.43
2018-11-10T05:55:52.247Z,52.70
2018-11-10T05:58:20.922Z,63.67
2018-11-10T06:00:49.710Z,60.50
2018-11-10T06:03:18.388Z,59.57
2018-11-10T06:05:46.872Z,61.00
2018-11-10T06:08:15.367Z,66.70
2018-11-10T06:10:43.983Z,64.67
2018-11-10T06:13:12.423Z,61.13
2018-11-10T06:15:40.926Z,60.53
2018-11-10T06:18:09.378Z,61.13
2018-11-10T06:20:37.871Z,57.23
2018-11-10T06:23:06.485Z,53.73
2018-11-10T06:25:34.987Z,63.00
2018-11-10T06:28:03.450Z,56.67
2018-11-10T06:30:31.963Z,51.90
2018-11-10T06:33:00.465Z,54.30
2018-11-10T06:35:28.961Z,65.73
2018-11-10T06:37:57.960Z,66.27
2018-11-10T06:40:26.465Z,58.33
2018-11-10T06:42:55.924Z,60.60
2018-11-10T06:45:24.924Z,56.73
2018-11-10T06:47:53.491Z,59.83
2018-11-10T06:50:21.936Z,61.20
2018-11-10T06:52:50.642Z,66.90
2018-11-10T06:55:19.085Z,67.30
2018-11-10T06:57:47.554Z,60.63
2018-11-10T07:00:16.373Z,58.00
2018-11-10T07:02:44.927Z,60.53
2018-11-10T07:05:13.559Z,55.07
2018-11-10T07:07:42.368Z,58.80
2018-11-10T07:10:11.010Z,59.57
2018-11-10T07:12:39.429Z,52.43
2018-11-10T07:15:08.680Z,57.53
2018-11-10T07:17:37.243Z,56.43
2018-11-10T07:20:05.986Z,47.40
2018-11-10T07:22:34.491Z,55.33
2018-11-10T07:25:03.068Z,50.03
2018-11-10T07:27:31.477Z,57.00
2018-11-10T07:29:59.922Z,54.33
2018-11-10T07:32:28.401Z,57.53
2018-11-10T07:34:56.848Z,58.80
2018-11-10T07:37:25.342Z,57.60
2018-11-10T07:39:53.849Z,53.57
2018-11-10T07:42:22.443Z,59.00
2018-11-10T07:44:50.937Z,59.53
2018-11-10T07:47:19.451Z,60.00
2018-11-10T07:49:47.925Z,60.97
2018-11-10T07:52:16.362Z,53.73
2018-11-10T07:54:44.829Z,55.70
2018-11-10T07:57:13.269Z,58.43
2018-11-10T07:59:41.743Z,57.90
2018-11-10T08:02:10.211Z,64.23
2018-11-10T08:04:38.781Z,63.03
2018-11-10T08:07:07.237Z,63.63
2018-11-10T08:09:35.678Z,58.33
2018-11-10T08:12:04.195Z,59.87
2018-11-10T08:14:32.670Z,60.90
2018-11-10T08:17:01.163Z,55.77
2018-11-10T08:19:29.619Z,59.53
2018-11-10T08:21:58.308Z,67.73
2018-11-10T08:24:26.837Z,58.00
2018-11-10T08:26:55.298Z,59.57
2018-11-10T08:29:23.782Z,55.67
2018-11-10T08:31:52.237Z,62.53
2018-11-10T08:34:20.738Z,60.30
2018-11-10T08:36:49.169Z,62.30
2018-11-10T08:39:17.710Z,54.43
2018-11-10T08:41:46.146Z,54.13
2018-11-10T08:44:14.667Z,53.93
2018-11-10T08:46:43.101Z,57.43
2018-11-10T08:49:11.600Z,53.30
2018-11-10T08:51:40.147Z,57.90
2018-11-10T08:54:08.647Z,56.40
2018-11-10T08:56:37.118Z,58.20
2018-11-10T08:59:05.632Z,55.07
2018-11-10T09:01:34.098Z,57.20
2018-11-10T09:04:02.677Z,52.17
2018-11-10T09:06:32.733Z,55.37
2018-11-10T09:09:01.213Z,50.73
2018-11-10T09:11:29.669Z,50.63
2018-11-10T09:13:58.139Z,55.73
2018-11-10T09:16:26.624Z,52.33
2018-11-10T09:18:55.098Z,54.67
2018-11-10T09:21:23.702Z,51.07
2018-11-10T09:23:52.071Z,53.10
2018-11-10T09:26:20.587Z,56.70
2018-11-10T09:28:49.051Z,51.87
2018-11-10T09:31:17.534Z,50.67
2018-11-10T09:33:46.009Z,56.63
2018-11-10T09:36:14.547Z,56.53
2018-11-10T09:38:42.982Z,61.10
2018-11-10T09:41:11.472Z,60.60
2018-11-10T09:43:39.905Z,67.10
2018-11-10T09:46:08.414Z,61.63
2018-11-10T09:48:36.865Z,59.80
2018-11-10T09:51:05.428Z,57.90
2018-11-10T09:53:33.881Z,61.27
2018-11-10T09:56:02.407Z,65.20
2018-11-10T09:58:30.898Z,59.30
2018-11-10T10:00:59.449Z,58.13
2018-11-10T10:03:27.879Z,59.40
2018-11-10T10:05:56.394Z,59.50
2018-11-10T10:08:24.872Z,58.03
2018-11-10T10:10:53.369Z,55.50
2018-11-10T10:13:21.870Z,55.27
2018-11-10T10:15:50.369Z,56.83
2018-11-10T10:18:18.839Z,57.80
2018-11-10T10:20:47.342Z,65.73
2018-11-10T10:23:16.058Z,57.30
2018-11-10T10:25:44.605Z,58.90
2018-11-10T10:28:13.121Z,63.73
2018-11-10T10:30:41.622Z,70.57
2018-11-10T10:33:10.083Z,66.30
2018-11-10T10:35:38.749Z,64.30
2018-11-10T10:38:07.080Z,60.00
2018-11-10T10:40:35.588Z,64.37
2018-11-10T10:43:04.156Z,59.87
2018-11-10T10:45:32.622Z,61.60
2018-11-10T10:48:01.074Z,66.80
2018-11-10T10:50:29.589Z,53.47
2018-11-10T10:52:58.045Z,63.43
2018-11-10T10:55:26.542Z,57.67
2018-11-10T10:57:55.031Z,60.93
2018-11-10T11:00:28.762Z,68.13
2018-11-10T11:03:02.491Z,59.10
2018-11-10T11:05:36.142Z,57.53
2018-11-10T11:08:04.809Z,57.40
2018-11-10T11:10:34.419Z,56.70
2018-11-10T11:13:03.304Z,55.63
2018-11-10T11:15:32.107Z,54.37
2018-11-10T11:18:00.530Z,54.83
2018-11-10T11:20:28.989Z,53.53
2018-11-10T11:22:57.543Z,53.30
2018-11-10T11:25:26.210Z,54.70
2018-11-10T11:27:55.119Z,56.17
2018-11-10T11:30:23.626Z,54.60
2018-11-10T11:32:52.152Z,56.37
2018-11-10T11:35:20.737Z,48.97
2018-11-10T11:37:49.343Z,53.60
2018-11-10T11:40:17.862Z,54.40
2018-11-10T11:42:46.334Z,51.67
2018-11-10T11:45:16.987Z,54.23
2018-11-10T11:47:45.958Z,51.87
2018-11-10T11:50:15.610Z,48.60
2018-11-10T11:52:44.736Z,48.43
2018-11-10T11:55:13.682Z,51.63
2018-11-10T11:57:42.453Z,51.50
2018-11-10T12:00:12.979Z,54.17
2018-11-10T12:02:42.230Z,49.00
2018-11-10T12:05:12.022Z,49.97
2018-11-10T12:07:40.611Z,52.23
2018-11-10T12:10:10.946Z,53.13
2018-11-10T12:12:39.566Z,51.00
2018-11-10T12:15:08.911Z,45.67
2018-11-10T12:17:37.527Z,45.90
2018-11-10T12:20:07.476Z,48.17
2018-11-10T12:22:37.101Z,48.47
2018-11-10T12:25:06.403Z,42.63
2018-11-10T12:27:34.947Z,44.37
2018-11-10T12:30:03.513Z,53.23
2018-11-10T12:32:36.427Z,42.97
2018-11-10T12:35:06.056Z,45.77
2018-11-10T12:37:34.816Z,45.70
2018-11-10T12:40:03.830Z,47.57
2018-11-10T12:42:32.608Z,50.27
2018-11-10T12:45:01.341Z,46.23
2018-11-10T12:47:30.995Z,48.73
2018-11-10T12:50:01.480Z,47.13
2018-11-10T12:52:30.249Z,44.23
2018-11-10T12:54:59.072Z,44.80
2018-11-10T12:57:27.943Z,44.77
2018-11-10T12:59:56.871Z,37.47
2018-11-10T13:02:25.956Z,44.67
2018-11-10T13:04:55.994Z,41.80
2018-11-10T13:07:24.810Z,45.53
2018-11-10T13:09:53.812Z,43.93
2018-11-10T13:12:22.674Z,45.13
2018-11-10T13:14:52.164Z,45.07
2018-11-10T13:17:20.837Z,45.47
2018-11-10T13:19:53.977Z,43.37
2018-11-10T13:22:22.499Z,44.67
2018-11-10T13:24:51.291Z,44.70
2018-11-10T13:27:22.611Z,42.37
2018-11-10T13:29:51.243Z,42.37
2018-11-10T13:32:19.740Z,41.07
2018-11-10T13:34:48.268Z,43.70
2018-11-10T13:37:16.807Z,44.67
2018-11-10T13:39:45.302Z,38.50
2018-11-10T13:42:13.785Z,47.23
2018-11-10T13:44:42.254Z,47.13
2018-11-10T13:47:10.749Z,41.73
2018-11-10T13:49:39.282Z,43.37
2018-11-10T13:52:08.063Z,44.03
2018-11-10T13:54:36.303Z,45.53
2018-11-10T13:57:05.359Z,37.57
2018-11-10T13:59:34.193Z,43.37
2018-11-10T14:02:02.718Z,42.03
2018-11-10T14:04:31.226Z,42.30
2018-11-10T14:06:59.749Z,39.43
2018-11-10T14:09:28.200Z,45.67
2018-11-10T14:11:56.730Z,41.27
2018-11-10T14:14:25.230Z,43.03
2018-11-10T14:16:53.740Z,46.93
2018-11-10T14:19:22.224Z,44.13
2018-11-10T14:21:50.771Z,49.77
2018-11-10T14:24:22.044Z,46.57
2018-11-10T14:26:50.573Z,41.90
2018-11-10T14:29:19.050Z,45.97
2018-11-10T14:31:47.719Z,44.43
2018-11-10T14:34:16.213Z,44.13
2018-11-10T14:36:44.799Z,42.27
2018-11-10T14:39:13.294Z,41.93
2018-11-10T14:41:41.930Z,43.40
2018-11-10T14:44:10.667Z,44.73
2018-11-10T14:46:39.234Z,44.47
2018-11-10T14:49:08.977Z,45.87
2018-11-10T14:51:37.467Z,43.20
2018-11-10T14:54:05.973Z,38.77
2018-11-10T14:56:34.904Z,44.97
2018-11-10T14:59:03.933Z,41.90
2018-11-10T15:01:32.748Z,42.67
2018-11-10T15:04:01.354Z,39.90
2018-11-10T15:06:29.874Z,45.10
2018-11-10T15:08:58.422Z,41.10
2018-11-10T15:11:27.026Z,38.57
2018-11-10T15:13:55.531Z,48.43
2018-11-10T15:16:24.047Z,40.97
2018-11-10T15:18:52.594Z,41.50
2018-11-10T15:21:21.049Z,43.67
2018-11-10T15:23:49.522Z,39.87
2018-11-10T15:26:18.106Z,41.17
2018-11-10T15:28:46.790Z,44.30
2018-11-10T15:31:15.265Z,48.67
2018-11-10T15:33:43.783Z,47.93
2018-11-10T15:36:12.370Z,49.90
2018-11-10T15:38:40.943Z,48.30
2018-11-10T15:41:09.468Z,44.63
2018-11-10T15:43:37.958Z,45.87
2018-11-10T15:46:09.261Z,44.20
2018-11-10T15:48:37.733Z,45.10
2018-11-10T15:51:06.258Z,48.57
2018-11-10T15:53:34.738Z,56.87
2018-11-10T15:56:03.282Z,47.53
2018-11-10T15:58:31.775Z,46.07
2018-11-10T16:01:00.227Z,45.53
2018-11-10T16:03:28.775Z,47.70
2018-11-10T16:05:57.306Z,51.93
2018-11-10T16:08:26.593Z,44.90
2018-11-10T16:10:55.148Z,52.67
2018-11-10T16:13:23.633Z,49.33
2018-11-10T16:15:52.202Z,44.37
2018-11-10T16:18:20.757Z,45.43
2018-11-10T16:20:49.220Z,76.87
2018-11-10T16:23:17.772Z,75.30
2018-11-10T16:25:46.649Z,59.90
2018-11-10T16:28:15.158Z,69.97
2018-11-10T16:30:43.634Z,52.13
2018-11-10T16:33:12.235Z,46.73
2018-11-10T16:35:40.678Z,41.10
2018-11-10T16:38:09.307Z,39.83
2018-11-10T16:40:37.904Z,52.13
2018-11-10T16:43:06.404Z,46.83
2018-11-10T16:45:34.914Z,52.10
2018-11-10T16:48:03.400Z,44.63
2018-11-10T16:50:31.902Z,42.73
2018-11-10T16:53:00.426Z,46.57
2018-11-10T16:55:28.964Z,47.27
2018-11-10T16:57:57.377Z,48.07
2018-11-10T17:00:25.863Z,46.33
2018-11-10T17:02:57.834Z,48.87
2018-11-10T17:05:26.331Z,46.23
2018-11-10T17:07:54.797Z,44.33
2018-11-10T17:10:23.501Z,42.17
2018-11-10T17:12:51.965Z,46.40
2018-11-10T17:15:20.974Z,37.90
2018-11-10T17:17:49.409Z,43.23
2018-11-10T17:20:17.927Z,43.33
2018-11-10T17:22:46.592Z,45.40
2018-11-10T17:25:15.641Z,50.47
2018-11-10T17:27:44.261Z,42.97
2018-11-10T17:30:19.002Z,38.10
2018-11-10T17:32:47.699Z,48.40
2018-11-10T17:35:16.374Z,37.90
2018-11-10T17:37:45.177Z,42.07
2018-11-10T17:40:14.501Z,41.03
2018-11-10T17:42:46.603Z,51.30
2018-11-10T17:45:17.202Z,44.53
2018-11-10T17:47:45.745Z,54.07
2018-11-10T17:50:15.598Z,47.47
2018-11-10T17:52:44.215Z,51.10
2018-11-10T17:55:13.767Z,51.07
2018-11-10T17:57:42.890Z,63.97
2018-11-10T18:00:11.491Z,50.23
2018-11-10T18:02:40.001Z,55.10
2018-11-10T18:05:09.954Z,45.47
2018-11-10T18:07:40.318Z,61.10
2018-11-10T18:10:11.814Z,89.67
2018-11-10T18:12:40.561Z,90.00
2018-11-10T18:15:09.808Z,136.47
2018-11-10T18:17:38.852Z,45.87
2018-11-10T18:20:08.183Z,43.47
2018-11-10T18:22:37.751Z,43.50
2018-11-10T18:25:06.663Z,53.63
2018-11-10T18:27:35.413Z,44.97
2018-11-10T18:30:04.513Z,61.93
2018-11-10T18:32:33.113Z,76.63
2018-11-10T18:35:01.703Z,66.03
2018-11-10T18:37:30.418Z,45.30
2018-11-10T18:39:59.128Z,44.60
2018-11-10T18:42:27.859Z,40.17
2018-11-10T18:44:56.352Z,52.43
2018-11-10T18:47:25.191Z,40.83
2018-11-10T18:49:53.843Z,49.37
2018-11-10T18:52:22.371Z,45.13
2018-11-10T18:54:50.927Z,46.63
2018-11-10T18:57:19.591Z,49.07
2018-11-10T18:59:48.088Z,42.07
2018-11-10T19:02:16.638Z,48.17
2018-11-10T19:04:45.453Z,48.20
2018-11-10T19:07:14.224Z,56.87
2018-11-10T19:09:42.905Z,50.57
2018-11-10T19:12:11.803Z,42.87
2018-11-10T19:14:40.522Z,35.63
2018-11-10T19:17:09.210Z,39.83
2018-11-10T19:19:37.870Z,39.73
2018-11-10T19:22:06.618Z,35.43
2018-11-10T19:24:35.179Z,46.87
2018-11-10T19:27:03.834Z,43.43
2018-11-10T19:29:32.335Z,44.17
2018-11-10T19:32:01.291Z,41.93
2018-11-10T19:34:30.191Z,40.47
2018-11-10T19:36:58.774Z,36.30
2018-11-10T19:39:27.324Z,55.93
2018-11-10T19:41:56.135Z,43.50
2018-11-10T19:44:24.916Z,47.50
2018-11-10T19:46:53.590Z,75.50
2018-11-10T19:49:22.424Z,80.80
2018-11-10T19:51:51.580Z,53.43
2018-11-10T19:54:19.853Z,45.37
2018-11-10T19:56:48.499Z,38.53
2018-11-10T19:59:17.028Z,37.83
2018-11-10T20:01:45.720Z,39.20
2018-11-10T20:04:14.654Z,39.10
2018-11-10T20:06:43.229Z,36.93
2018-11-10T20:09:11.975Z,40.57
2018-11-10T20:11:40.658Z,43.80
2018-11-10T20:14:09.485Z,46.87
2018-11-10T20:16:38.254Z,49.47
2018-11-10T20:19:07.026Z,46.13
2018-11-10T20:21:35.627Z,40.93
2018-11-10T20:24:04.173Z,39.03
2018-11-10T20:26:32.784Z,37.00
2018-11-10T20:29:01.344Z,37.80
2018-11-10T20:31:30.010Z,37.40
2018-11-10T20:33:58.521Z,38.00
2018-11-10T20:36:27.076Z,37.53
2018-11-10T20:38:55.735Z,38.53
2018-11-10T20:41:24.377Z,35.87
2018-11-10T20:43:52.867Z,38.03
2018-11-10T20:46:21.584Z,37.87
2018-11-10T20:48:50.147Z,35.80
2018-11-10T20:51:18.895Z,33.03
2018-11-10T20:53:47.318Z,34.13
2018-11-10T20:56:16.109Z,35.77
2018-11-10T20:58:44.653Z,33.73
2018-11-10T21:01:13.367Z,39.97
2018-11-10T21:03:42.198Z,37.03
2018-11-10T21:06:10.955Z,34.17
2018-11-10T21:08:39.644Z,33.97
2018-11-10T21:11:08.415Z,34.37
2018-11-10T21:13:37.000Z,40.37
2018-11-10T21:16:05.991Z,40.50
2018-11-10T21:18:34.970Z,33.50
2018-11-10T21:21:04.327Z,38.57
2018-11-10T21:23:33.285Z,38.80
2018-11-10T21:26:01.929Z,35.97
2018-11-10T21:28:30.747Z,37.57
2018-11-10T21:30:59.530Z,33.03
2018-11-10T21:33:28.290Z,36.47
2018-11-10T21:35:58.112Z,40.13
2018-11-10T21:38:26.959Z,38.90
2018-11-10T21:40:55.492Z,37.73
2018-11-10T21:43:24.110Z,36.97
2018-11-10T21:45:53.092Z,33.97
2018-11-10T21:48:21.987Z,34.90
2018-11-10T21:50:50.671Z,41.13
2018-11-10T21:53:19.207Z,29.93
2018-11-10T21:55:47.793Z,33.93
2018-11-10T21:58:16.681Z,37.23
2018-11-10T22:00:45.543Z,35.17
2018-11-10T22:03:14.183Z,31.23
2018-11-10T22:05:42.859Z,31.43
2018-11-10T22:08:11.795Z,36.80
2018-11-10T22:10:40.756Z,46.37
2018-11-10T22:13:09.467Z,36.73
2018-11-10T22:15:38.116Z,33.43
2018-11-10T22:18:06.884Z,30.87
2018-11-10T22:20:35.594Z,34.30
2018-11-10T22:23:04.524Z,32.13
2018-11-10T22:25:33.195Z,39.43
2018-11-10T22:28:01.918Z,34.43
2018-11-10T22:30:30.714Z,26.90
2018-11-10T22:32:59.397Z,27.50
2018-11-10T22:35:28.073Z,32.17
2018-11-10T22:37:56.566Z,34.87
2018-11-10T22:40:25.188Z,32.37
2018-11-10T22:42:53.641Z,32.60
2018-11-10T22:45:22.584Z,29.63
2018-11-10T22:47:51.720Z,30.90
2018-11-10T22:50:22.558Z,31.33
2018-11-10T22:52:51.236Z,26.50
2018-11-10T22:55:19.850Z,32.83
2018-11-10T22:57:48.382Z,33.43
2018-11-10T23:00:24.897Z,32.07
2018-11-10T23:02:55.751Z,32.73
2018-11-10T23:05:24.915Z,33.87
2018-11-10T23:07:53.549Z,35.90
2018-11-10T23:10:22.392Z,37.93
2018-11-10T23:12:52.010Z,36.37
2018-11-10T23:15:20.676Z,33.93
2018-11-10T23:17:49.375Z,34.93
2018-11-10T23:20:18.841Z,39.63
2018-11-10T23:22:47.579Z,31.53
2018-11-10T23:25:17.396Z,32.97
2018-11-10T23:27:46.027Z,30.07
2018-11-10T23:30:19.952Z,33.47
2018-11-10T23:32:48.612Z,35.80
2018-11-10T23:35:17.316Z,32.00
2018-11-10T23:37:45.944Z,30.83
2018-11-10T23:40:15.739Z,34.43
2018-11-10T23:42:44.722Z,33.63
2018-11-10T23:45:14.254Z,36.03
2018-11-10T23:47:42.926Z,33.47
2018-11-10T23:50:13.105Z,31.70
2018-11-10T23:52:41.963Z,31.77
2018-11-10T23:55:11.735Z,34.37
2018-11-10T23:57:40.386Z,35.53
